Time;durP1;ratioP1;P1;durP2;ratioP2;P2;SDS_P1;SDS_P2;PMS_P1;PMS_P2;Temp;Humidity;BMP_temperature;BMP_pressure;BME280_temperature;BME280_humidity;BME280_pressure;Samples;Min_cycle;Max_cycle;Signal;HPM_P1;HPM_P2
2021/09/02 00:00:06;;;;;;;;;;;19.00;93.00;19.00;99985.00;;;;341056;28;95462;-92
2021/09/02 00:00:18;;;;;;;;;;;19.00;93.00;18.90;99989.00;;;;340604;28;82474;-93
2021/09/02 00:00:30;;;;;;;;;;;19.00;92.90;18.90;99991.00;;;;337201;28;96873;-92
2021/09/02 00:00:42;;;;;;;;;;;19.00;92.90;19.00;99987.00;;;;341712;28;83569;-94
2021/09/02 00:00:53;;;;;;;;;;;19.00;92.90;19.10;99993.00;;;;339823;28;96687;-93
2021/09/02 00:01:05;;;;;;;;;;;18.90;92.80;19.00;99992.00;;;;338017;28;83489;-93
2021/09/02 00:01:17;;;;;;;;;;;19.00;92.90;19.00;99985.00;;;;338562;28;96559;-93
2021/09/02 00:01:29;;;;;;;;;;;18.90;93.00;19.00;99992.00;;;;346292;28;82513;-92
2021/09/02 00:01:41;;;;;;;;;;;19.00;93.10;18.90;99991.00;;;;345467;28;95943;-92
2021/09/02 00:01:54;;;;;;;;;;;18.90;93.10;18.90;99984.00;;;;339324;28;82452;-93
2021/09/02 00:02:06;;;;;;;;;;;18.90;93.10;18.90;99987.00;;;;338486;28;96145;-93
2021/09/02 00:02:17;;;;;;;;;;;18.90;93.10;18.90;99986.00;;;;340746;28;83376;-93
2021/09/02 00:02:29;;;;;;;;;;;18.90;93.10;18.90;99989.00;;;;341078;28;95222;-92
2021/09/02 00:02:41;;;;;;;;;;;18.90;93.10;18.90;99989.00;;;;338940;28;82579;-92
2021/09/02 00:02:53;;;;;;;;;;;18.90;93.20;18.90;99987.00;;;;339387;28;94095;-93
2021/09/02 00:03:05;;;;;;;;;;;18.90;93.20;18.90;99988.00;;;;339057;28;83407;-93
2021/09/02 00:03:17;;;;;;;;;;;18.90;93.10;18.90;99989.00;;;;338551;28;95209;-93
2021/09/02 00:03:29;;;;;;;;;;;18.90;93.00;18.90;99992.00;;;;340627;28;83486;-91
2021/09/02 00:03:41;;;;;;;;;;;18.90;93.00;19.00;99993.00;;;;346839;28;96489;-94
2021/09/02 00:03:53;;;;;;;;;;;18.90;93.00;18.90;99984.00;;;;346214;28;82578;-93
2021/09/02 00:04:04;;;;;;;;;;;18.90;93.10;19.00;99995.00;;;;338514;28;93606;-93
2021/09/02 00:04:16;;;;;;;;;;;18.90;92.90;19.10;99996.00;;;;340630;28;82512;-93
2021/09/02 00:04:28;;;;;;;;;;;18.90;92.80;19.00;99988.00;;;;339855;28;96286;-93
2021/09/02 00:04:40;;;;;;;;;;;18.90;92.80;19.00;99989.00;;;;341798;28;83433;-92
2021/09/02 00:04:51;;;;;;;;;;;18.90;92.90;19.00;99992.00;;;;337119;28;95372;-92
2021/09/02 00:05:04;;;;;;;;;;;18.90;93.00;19.00;99982.00;;;;340616;28;83383;-93
2021/09/02 00:05:16;;;;;;;;;;;18.90;92.80;19.00;99989.00;;;;341270;28;95441;-93
2021/09/02 00:05:28;;;;;;;;;;;18.90;92.90;19.00;99988.00;;;;337916;28;82567;-92
2021/09/02 00:05:40;;;;;;;;;;;18.90;92.80;19.10;99993.00;;;;338120;28;96443;-93
2021/09/02 00:05:52;;;;;;;;;;;18.90;92.80;19.20;99993.00;;;;339072;28;83500;-93
2021/09/02 00:06:04;;;;;;;;;;;18.90;92.80;19.10;99992.00;;;;339240;28;95308;-93
2021/09/02 00:06:15;;;;;;;;;;;18.90;92.90;19.00;99988.00;;;;346294;28;83506;-94
2021/09/02 00:06:27;;;;;;;;;;;18.90;93.00;19.10;99991.00;;;;346705;28;96489;-93
2021/09/02 00:06:39;;;;;;;;;;;18.90;92.90;19.10;99985.00;;;;346010;28;83492;-92
2021/09/02 00:06:51;;;;;;;;;;;18.90;92.90;19.10;99993.00;;;;346865;27;95144;-91
2021/09/02 00:07:03;;;;;;;;;;;18.90;92.80;19.10;99997.00;;;;340720;28;83419;-93
2021/09/02 00:07:15;;;;;;;;;;;18.90;92.90;19.00;99990.00;;;;339913;28;93484;-93
2021/09/02 00:07:27;;;;;;;;;;;18.90;92.90;19.00;99999.00;;;;340473;28;82613;-93
2021/09/02 00:07:38;;;;;;;;;;;18.90;92.90;19.00;100000.00;;;;338489;28;95383;-93
2021/09/02 00:07:50;;;;;;;;;;;18.90;92.90;19.00;99992.00;;;;341944;28;83440;-92
2021/09/02 00:08:02;;;;;;;;;;;18.90;92.90;19.00;99998.00;;;;339745;28;95611;-93
2021/09/02 00:08:14;;;;;;;;;;;18.90;92.90;19.00;99996.00;;;;340697;28;83296;-93
2021/09/02 00:08:26;;;;;;;;;;;18.90;93.00;18.90;99993.00;;;;339880;28;95611;-93
2021/09/02 00:08:38;;;;;;;;;;;18.90;93.00;18.90;99989.00;;;;340019;28;82691;-93
2021/09/02 00:08:49;;;;;;;;;;;18.90;93.00;18.90;99990.00;;;;339562;28;97169;-92
2021/09/02 00:09:01;;;;;;;;;;;18.80;93.00;18.90;99990.00;;;;339281;28;82521;-93
2021/09/02 00:09:13;;;;;;;;;;;18.90;93.10;18.90;99995.00;;;;339413;28;96876;-90
2021/09/02 00:09:25;;;;;;;;;;;18.80;93.20;19.00;99992.00;;;;340670;28;83292;-93
2021/09/02 00:09:37;;;;;;;;;;;18.80;93.10;19.00;99994.00;;;;337847;28;92764;-93
2021/09/02 00:09:49;;;;;;;;;;;18.80;93.00;19.00;100000.00;;;;339230;28;83354;-93
2021/09/02 00:10:00;;;;;;;;;;;18.90;93.30;19.00;99997.00;;;;337191;28;94277;-92
2021/09/02 00:10:12;;;;;;;;;;;18.80;93.40;18.90;99988.00;;;;340627;28;82407;-93
2021/09/02 00:10:24;;;;;;;;;;;18.80;93.40;19.00;99993.00;;;;339771;28;96285;-92
2021/09/02 00:10:36;;;;;;;;;;;18.80;93.10;19.10;99996.00;;;;339214;28;83313;-93
2021/09/02 00:10:48;;;;;;;;;;;18.80;93.00;19.10;99998.00;;;;339744;28;93817;-93
2021/09/02 00:10:59;;;;;;;;;;;18.90;93.00;19.10;99989.00;;;;339147;28;83422;-92
2021/09/02 00:11:11;;;;;;;;;;;18.80;92.90;19.10;99990.00;;;;340025;28;93278;-93
2021/09/02 00:11:23;;;;;;;;;;;18.80;93.00;19.10;99995.00;;;;340503;28;82525;-93
2021/09/02 00:11:35;;;;;;;;;;;18.80;92.90;19.20;99994.00;;;;339527;28;96072;-91
2021/09/02 00:11:46;;;;;;;;;;;18.90;92.90;19.20;99996.00;;;;338423;28;82430;-94
2021/09/02 00:11:58;;;;;;;;;;;18.80;92.80;19.10;99994.00;;;;339739;28;96378;-91
2021/09/02 00:12:10;;;;;;;;;;;18.90;92.90;19.10;99996.00;;;;346234;28;82566;-93
2021/09/02 00:12:22;;;;;;;;;;;18.80;92.80;19.20;99992.00;;;;345412;28;95902;-93
2021/09/02 00:12:33;;;;;;;;;;;18.90;92.80;19.20;99995.00;;;;340473;28;83262;-93
2021/09/02 00:12:45;;;;;;;;;;;18.90;92.80;19.10;99997.00;;;;339844;28;96044;-93
2021/09/02 00:12:57;;;;;;;;;;;18.90;92.80;19.10;99988.00;;;;338874;28;83285;-92
2021/09/02 00:13:09;;;;;;;;;;;18.90;92.80;19.10;99990.00;;;;338580;28;92000;-93
2021/09/02 00:13:20;;;;;;;;;;;18.90;92.80;19.20;99985.00;;;;340582;28;82494;-92
2021/09/02 00:13:32;;;;;;;;;;;18.90;92.80;19.20;99989.00;;;;338570;28;94636;-93
2021/09/02 00:13:44;;;;;;;;;;;18.90;92.90;19.20;99988.00;;;;339282;28;83325;-93
2021/09/02 00:13:56;;;;;;;;;;;18.90;92.90;19.20;99984.00;;;;339866;28;95208;-93
2021/09/02 00:14:07;;;;;;;;;;;18.90;92.90;19.30;99989.00;;;;340576;28;82382;-94
2021/09/02 00:14:19;;;;;;;;;;;18.90;92.90;19.30;99996.00;;;;337087;28;97387;-93
2021/09/02 00:14:31;;;;;;;;;;;18.90;93.00;19.30;99994.00;;;;340418;28;82474;-92
2021/09/02 00:14:43;;;;;;;;;;;18.90;93.00;19.30;99988.00;;;;341942;28;96089;-92
2021/09/02 00:14:55;;;;;;;;;;;18.90;93.00;19.20;99995.00;;;;339317;28;83417;-93
2021/09/02 00:15:07;;;;;;;;;;;18.90;93.00;19.20;99991.00;;;;337873;28;96787;-92
2021/09/02 00:15:19;;;;;;;;;;;18.90;93.20;19.20;99993.00;;;;339226;28;82427;-92
2021/09/02 00:15:31;;;;;;;;;;;18.90;92.90;19.20;100000.00;;;;338588;28;96437;-91
2021/09/02 00:15:43;;;;;;;;;;;18.90;92.80;19.20;100002.00;;;;336668;28;82362;-93
2021/09/02 00:15:54;;;;;;;;;;;18.90;92.80;19.20;99993.00;;;;345448;28;96992;-93
2021/09/02 00:16:06;;;;;;;;;;;18.90;92.90;19.10;99992.00;;;;347519;27;82534;-93
2021/09/02 00:16:18;;;;;;;;;;;18.90;93.00;19.10;99998.00;;;;339813;28;93045;-92
2021/09/02 00:16:30;;;;;;;;;;;18.90;93.20;19.10;99999.00;;;;339057;28;83515;-92
2021/09/02 00:16:42;;;;;;;;;;;18.90;93.00;19.10;99992.00;;;;340951;28;96204;-92
2021/09/02 00:16:54;;;;;;;;;;;18.90;92.90;19.10;100000.00;;;;339271;28;83493;-93
2021/09/02 00:17:06;;;;;;;;;;;18.90;93.30;19.00;100004.00;;;;339759;28;94673;-92
2021/09/02 00:17:18;;;;;;;;;;;18.90;93.40;19.00;99996.00;;;;339250;28;83472;-93
2021/09/02 00:17:29;;;;;;;;;;;18.90;93.40;19.00;99998.00;;;;342490;28;96610;-91
2021/09/02 00:17:41;;;;;;;;;;;18.80;93.50;19.00;99999.00;;;;344785;28;82577;-92
2021/09/02 00:17:53;;;;;;;;;;;18.80;93.40;18.90;100001.00;;;;338406;28;93852;-93
2021/09/02 00:18:05;;;;;;;;;;;18.80;93.50;18.90;99992.00;;;;339085;28;83549;-92
2021/09/02 00:18:17;;;;;;;;;;;18.80;93.50;18.90;99997.00;;;;338489;28;97416;-93
2021/09/02 00:18:29;;;;;;;;;;;18.80;93.50;18.90;99997.00;;;;337997;28;83437;-93
2021/09/02 00:18:41;;;;;;;;;;;18.80;93.40;19.00;99999.00;;;;338363;28;96250;-94
2021/09/02 00:18:52;;;;;;;;;;;18.80;93.30;18.90;100001.00;;;;340647;28;83367;-93
2021/09/02 00:19:04;;;;;;;;;;;18.80;93.30;18.90;99997.00;;;;338599;28;94790;-93
2021/09/02 00:19:16;;;;;;;;;;;18.80;93.20;19.00;100002.00;;;;339312;28;83524;-93
2021/09/02 00:19:28;;;;;;;;;;;18.80;93.30;18.90;99999.00;;;;338582;28;94292;-93
2021/09/02 00:19:40;;;;;;;;;;;18.80;93.50;18.90;100004.00;;;;337901;28;83339;-92
2021/09/02 00:19:51;;;;;;;;;;;18.80;93.50;18.90;99999.00;;;;338651;28;95389;-93
2021/09/02 00:20:04;;;;;;;;;;;18.80;93.50;18.90;99995.00;;;;343364;28;83568;-90
2021/09/02 00:20:16;;;;;;;;;;;18.80;93.40;19.00;99996.00;;;;343830;28;95112;-92
2021/09/02 00:20:28;;;;;;;;;;;18.80;93.30;19.10;100005.00;;;;343468;28;83442;-93
2021/09/02 00:20:41;;;;;;;;;;;18.80;93.30;19.10;99999.00;;;;343089;28;94805;-93
2021/09/02 00:20:53;;;;;;;;;;;18.80;93.40;19.10;100007.00;;;;338120;28;83432;-93
2021/09/02 00:21:04;;;;;;;;;;;18.80;93.30;19.00;100002.00;;;;339036;28;94803;-92
2021/09/02 00:21:16;;;;;;;;;;;18.80;93.50;19.00;99999.00;;;;339138;28;83521;-93
2021/09/02 00:21:28;;;;;;;;;;;18.80;93.40;18.90;100001.00;;;;339745;28;96630;-93
2021/09/02 00:21:39;;;;;;;;;;;18.80;93.40;18.80;100003.00;;;;340816;28;82545;-93
2021/09/02 00:21:51;;;;;;;;;;;18.80;93.50;18.70;100001.00;;;;338390;28;96369;-90
2021/09/02 00:22:03;;;;;;;;;;;18.70;93.50;18.70;99993.00;;;;339328;28;82570;-93
2021/09/02 00:22:15;;;;;;;;;;;18.80;93.60;18.70;100003.00;;;;339853;28;95433;-93
2021/09/02 00:22:27;;;;;;;;;;;18.70;93.60;18.70;100001.00;;;;339302;28;82522;-92
2021/09/02 00:22:39;;;;;;;;;;;18.70;93.70;18.70;100007.00;;;;339627;28;96591;-92
2021/09/02 00:22:51;;;;;;;;;;;18.70;93.70;18.70;99996.00;;;;343142;28;83293;-94
2021/09/02 00:23:03;;;;;;;;;;;18.70;93.60;18.80;99994.00;;;;340920;28;94683;-93
2021/09/02 00:23:14;;;;;;;;;;;18.70;93.60;18.80;99995.00;;;;347618;28;83363;-94
2021/09/02 00:23:26;;;;;;;;;;;18.70;93.60;18.80;99988.00;;;;337104;28;96718;-93
2021/09/02 00:23:38;;;;;;;;;;;18.70;93.60;18.80;99993.00;;;;340178;28;83544;-93
2021/09/02 00:23:50;;;;;;;;;;;18.70;93.70;18.80;99993.00;;;;343923;28;97007;-94
2021/09/02 00:24:02;;;;;;;;;;;18.70;93.60;18.80;100000.00;;;;347255;28;82512;-93
2021/09/02 00:24:14;;;;;;;;;;;18.70;93.60;18.80;99997.00;;;;339823;28;94707;-93
2021/09/02 00:24:25;;;;;;;;;;;18.70;93.60;18.80;100004.00;;;;340678;28;82377;-93
2021/09/02 00:24:37;;;;;;;;;;;18.70;93.60;18.80;100006.00;;;;341109;28;93403;-93
2021/09/02 00:24:49;;;;;;;;;;;18.70;93.40;18.80;100003.00;;;;346185;28;83284;-92
2021/09/02 00:25:01;;;;;;;;;;;18.70;93.60;18.80;99999.00;;;;343956;28;96796;-92
2021/09/02 00:25:13;;;;;;;;;;;18.70;93.60;18.80;99994.00;;;;344761;28;83438;-93
2021/09/02 00:25:25;;;;;;;;;;;18.60;93.40;18.80;100001.00;;;;345303;28;97226;-92
2021/09/02 00:25:36;;;;;;;;;;;18.60;93.30;18.80;99997.00;;;;338012;28;82706;-93
2021/09/02 00:25:48;;;;;;;;;;;18.70;93.30;18.90;100001.00;;;;338605;28;96093;-93
2021/09/02 00:26:00;;;;;;;;;;;18.60;93.20;18.90;99989.00;;;;339294;28;82466;-93
2021/09/02 00:26:12;;;;;;;;;;;18.70;93.20;18.90;100001.00;;;;339726;28;96208;-91
2021/09/02 00:26:24;;;;;;;;;;;18.60;93.20;18.90;99988.00;;;;339279;28;82518;-93
2021/09/02 00:26:36;;;;;;;;;;;18.70;93.40;18.90;100000.00;;;;340809;28;95589;-93
2021/09/02 00:26:48;;;;;;;;;;;18.70;93.30;18.90;99997.00;;;;341838;28;82557;-93
2021/09/02 00:27:00;;;;;;;;;;;18.60;93.30;18.90;99990.00;;;;341243;28;94623;-93
2021/09/02 00:27:11;;;;;;;;;;;18.70;93.30;18.90;100004.00;;;;340554;28;83407;-92
2021/09/02 00:27:23;;;;;;;;;;;18.70;93.30;18.90;99997.00;;;;338317;28;96969;-93
2021/09/02 00:27:36;;;;;;;;;;;18.70;93.20;18.90;99991.00;;;;338177;28;83440;-93
2021/09/02 00:27:47;;;;;;;;;;;18.70;93.30;18.90;99996.00;;;;337259;28;96424;-93
2021/09/02 00:27:59;;;;;;;;;;;18.70;93.30;19.00;99993.00;;;;341952;28;82525;-92
2021/09/02 00:28:11;;;;;;;;;;;18.70;93.30;18.90;99988.00;;;;341121;28;96218;-89
2021/09/02 00:28:23;;;;;;;;;;;18.70;93.30;18.90;100000.00;;;;339356;28;82409;-93
2021/09/02 00:28:35;;;;;;;;;;;18.70;93.40;18.90;99990.00;;;;337279;28;97413;-93
2021/09/02 00:28:47;;;;;;;;;;;18.70;93.40;18.90;99987.00;;;;339258;28;82586;-92
2021/09/02 00:28:58;;;;;;;;;;;18.70;93.40;18.90;100000.00;;;;338250;28;95796;-92
2021/09/02 00:29:10;;;;;;;;;;;18.70;93.30;18.90;100005.00;;;;341962;28;82480;-92
2021/09/02 00:29:22;;;;;;;;;;;18.70;93.30;19.00;100003.00;;;;335861;28;96489;-93
2021/09/02 00:29:34;;;;;;;;;;;18.70;93.20;18.90;100001.00;;;;341600;28;83433;-92
2021/09/02 00:29:45;;;;;;;;;;;18.70;93.30;18.90;100004.00;;;;339633;28;95294;-93
2021/09/02 00:29:57;;;;;;;;;;;18.70;93.40;18.90;99996.00;;;;341925;28;83412;-93
2021/09/02 00:30:09;;;;;;;;;;;18.70;93.40;18.90;100003.00;;;;342288;27;96364;-93
2021/09/02 00:30:22;;;;;;;;;;;18.70;93.30;18.90;100003.00;;;;340596;28;82504;-92
2021/09/02 00:30:34;;;;;;;;;;;18.70;93.30;19.00;99996.00;;;;345298;28;97113;-93
2021/09/02 00:30:45;;;;;;;;;;;18.70;93.40;19.00;99988.00;;;;340621;28;83529;-93
2021/09/02 00:30:57;;;;;;;;;;;18.70;93.30;18.90;99997.00;;;;344122;28;94559;-93
2021/09/02 00:31:09;;;;;;;;;;;18.70;93.30;19.00;99995.00;;;;339280;28;83301;-93
2021/09/02 00:31:21;;;;;;;;;;;18.70;93.50;19.10;99991.00;;;;339690;28;96677;-93
2021/09/02 00:31:33;;;;;;;;;;;18.70;93.50;19.00;99991.00;;;;341650;28;83416;-93
2021/09/02 00:31:45;;;;;;;;;;;18.70;93.50;19.00;99999.00;;;;346831;28;95878;-93
2021/09/02 00:31:56;;;;;;;;;;;18.70;93.50;19.00;99998.00;;;;346288;28;83350;-92
2021/09/02 00:32:08;;;;;;;;;;;18.70;93.50;19.00;99997.00;;;;338410;28;96298;-93
2021/09/02 00:32:20;;;;;;;;;;;18.70;93.40;19.00;99995.00;;;;340653;28;82446;-93
2021/09/02 00:32:32;;;;;;;;;;;18.70;93.70;18.90;99998.00;;;;336942;28;94031;-92
2021/09/02 00:32:44;;;;;;;;;;;18.70;93.60;18.90;99995.00;;;;339152;28;82387;-92
2021/09/02 00:32:55;;;;;;;;;;;18.70;93.60;18.90;99995.00;;;;345507;28;95821;-93
2021/09/02 00:33:13;;;;;;;;;;;18.70;93.70;18.80;100002.00;;;;347195;28;82573;-94
2021/09/02 00:33:25;;;;;;;;;;;18.70;93.70;18.90;99993.00;;;;345438;28;95442;-93
2021/09/02 00:33:37;;;;;;;;;;;18.70;93.60;18.90;99995.00;;;;338504;28;83772;-92
2021/09/02 00:33:49;;;;;;;;;;;18.60;93.60;18.80;100000.00;;;;346876;28;95810;-93
2021/09/02 00:34:01;;;;;;;;;;;18.60;93.70;18.80;100004.00;;;;346296;28;82453;-92
2021/09/02 00:34:13;;;;;;;;;;;18.60;93.80;18.80;99997.00;;;;339820;28;95433;-93
2021/09/02 00:34:24;;;;;;;;;;;18.60;94.00;18.70;99999.00;;;;346465;28;83335;-93
2021/09/02 00:34:36;;;;;;;;;;;18.60;94.20;18.70;100002.00;;;;347203;28;93944;-92
2021/09/02 00:34:48;;;;;;;;;;;18.60;94.00;18.70;100007.00;;;;339570;28;83315;-92
2021/09/02 00:35:00;;;;;;;;;;;18.60;94.00;18.70;100003.00;;;;340126;28;93456;-92
2021/09/02 00:35:12;;;;;;;;;;;18.60;94.00;18.70;100001.00;;;;347813;28;83391;-93
2021/09/02 00:35:24;;;;;;;;;;;18.60;93.80;18.80;100001.00;;;;340040;28;95223;-92
2021/09/02 00:35:35;;;;;;;;;;;18.60;93.70;18.70;100001.00;;;;346660;28;82675;-93
2021/09/02 00:35:47;;;;;;;;;;;18.60;93.80;18.70;100001.00;;;;345480;28;95470;-94
2021/09/02 00:35:59;;;;;;;;;;;18.60;93.90;18.70;100002.00;;;;340658;28;82413;-91
2021/09/02 00:36:11;;;;;;;;;;;18.60;94.00;18.70;100008.00;;;;337144;28;96526;-92
2021/09/02 00:36:22;;;;;;;;;;;18.60;93.80;18.60;100007.00;;;;340619;28;83530;-92
2021/09/02 00:36:34;;;;;;;;;;;18.50;93.80;18.60;100003.00;;;;338600;28;97469;-93
2021/09/02 00:36:46;;;;;;;;;;;18.60;93.80;18.60;100005.00;;;;342183;28;83469;-93
2021/09/02 00:36:58;;;;;;;;;;;18.50;93.80;18.70;99997.00;;;;341470;28;96496;-94
2021/09/02 00:37:09;;;;;;;;;;;18.50;93.80;18.70;100004.00;;;;342096;28;82462;-93
2021/09/02 00:37:22;;;;;;;;;;;18.50;93.70;18.70;100010.00;;;;338649;28;95600;-92
2021/09/02 00:37:33;;;;;;;;;;;18.60;93.70;18.60;100006.00;;;;342092;28;83408;-93
2021/09/02 00:37:45;;;;;;;;;;;18.50;93.70;18.60;100008.00;;;;338614;28;96812;-93
2021/09/02 00:37:57;;;;;;;;;;;18.50;93.90;18.60;100007.00;;;;339383;28;82403;-92
2021/09/02 00:38:09;;;;;;;;;;;18.50;93.90;18.50;100003.00;;;;339932;28;93036;-93
2021/09/02 00:38:20;;;;;;;;;;;18.50;93.80;18.40;100002.00;;;;340503;28;83405;-92
2021/09/02 00:38:32;;;;;;;;;;;18.50;93.90;18.40;100007.00;;;;338147;28;97466;-92
2021/09/02 00:38:44;;;;;;;;;;;18.50;94.00;18.40;100009.00;;;;338895;28;82617;-92
2021/09/02 00:38:56;;;;;;;;;;;18.50;94.10;18.40;100001.00;;;;337358;28;95591;-93
2021/09/02 00:39:07;;;;;;;;;;;18.50;94.10;18.30;100002.00;;;;339216;28;82564;-92
2021/09/02 00:39:19;;;;;;;;;;;18.50;94.10;18.40;100007.00;;;;339653;28;96587;-90
2021/09/02 00:39:31;;;;;;;;;;;18.50;94.10;18.30;100004.00;;;;339322;28;82246;-92
2021/09/02 00:39:43;;;;;;;;;;;18.50;94.10;18.30;99999.00;;;;338462;28;94088;-93
2021/09/02 00:39:54;;;;;;;;;;;18.50;94.20;18.30;100004.00;;;;337961;28;82502;-93
2021/09/02 00:40:06;;;;;;;;;;;18.40;94.20;18.20;100011.00;;;;343989;28;97329;-93
2021/09/02 00:40:18;;;;;;;;;;;18.40;94.20;18.30;100005.00;;;;338108;28;82420;-92
2021/09/02 00:40:30;;;;;;;;;;;18.40;94.30;18.30;100003.00;;;;338208;28;96080;-92
2021/09/02 00:40:42;;;;;;;;;;;18.40;94.30;18.30;100000.00;;;;337886;28;82542;-91
2021/09/02 00:40:53;;;;;;;;;;;18.40;94.30;18.40;100008.00;;;;337234;28;94725;-92
2021/09/02 00:41:05;;;;;;;;;;;18.40;94.20;18.40;100000.00;;;;336531;28;83623;-93
2021/09/02 00:41:17;;;;;;;;;;;18.40;94.10;18.40;100004.00;;;;339884;28;96975;-92
2021/09/02 00:41:29;;;;;;;;;;;18.40;94.10;18.30;100001.00;;;;337987;28;82527;-93
2021/09/02 00:41:40;;;;;;;;;;;18.40;94.10;18.30;99998.00;;;;336736;28;96475;-93
2021/09/02 00:41:52;;;;;;;;;;;18.40;94.20;18.30;99996.00;;;;341327;28;83507;-92
2021/09/02 00:42:04;;;;;;;;;;;18.30;94.40;18.30;100000.00;;;;340912;28;96762;-93
2021/09/02 00:42:16;;;;;;;;;;;18.30;94.40;18.30;100003.00;;;;343193;27;82502;-92
2021/09/02 00:42:28;;;;;;;;;;;18.30;94.40;18.30;100004.00;;;;338510;28;93021;-92
2021/09/02 00:42:39;;;;;;;;;;;18.30;94.40;18.30;100000.00;;;;337702;28;82588;-92
2021/09/02 00:42:51;;;;;;;;;;;18.30;94.30;18.20;100004.00;;;;342666;28;94947;-93
2021/09/02 00:43:03;;;;;;;;;;;18.30;94.40;18.20;99999.00;;;;344959;28;83340;-94
2021/09/02 00:43:15;;;;;;;;;;;18.30;94.40;18.40;99996.00;;;;337117;28;95845;-93
2021/09/02 00:43:27;;;;;;;;;;;18.30;94.30;18.30;99997.00;;;;337819;28;83472;-93
2021/09/02 00:43:39;;;;;;;;;;;18.30;94.30;18.20;100004.00;;;;339852;28;97137;-92
2021/09/02 00:43:51;;;;;;;;;;;18.30;94.30;18.20;100007.00;;;;340501;28;83496;-92
2021/09/02 00:44:03;;;;;;;;;;;18.20;94.30;18.30;99997.00;;;;342523;28;95497;-93
2021/09/02 00:44:36;;;;;;;;;;;18.30;94.40;18.40;99995.00;;;;342095;28;82522;-93
2021/09/02 00:44:48;;;;;;;;;;;18.30;94.40;18.40;99998.00;;;;339627;28;95565;-93
2021/09/02 00:45:00;;;;;;;;;;;18.30;94.20;18.40;99997.00;;;;347578;28;83447;-92
2021/09/02 00:45:12;;;;;;;;;;;18.30;94.20;18.30;99996.00;;;;346963;28;96644;-92
2021/09/02 00:45:24;;;;;;;;;;;18.20;94.40;18.20;99990.00;;;;346161;28;82522;-93
2021/09/02 00:45:36;;;;;;;;;;;18.20;94.40;18.30;99994.00;;;;339618;28;96517;-93
2021/09/02 00:45:48;;;;;;;;;;;18.20;94.40;18.30;99991.00;;;;339281;28;82435;-92
2021/09/02 00:45:59;;;;;;;;;;;18.20;94.40;18.30;100002.00;;;;342366;28;97217;-92
2021/09/02 00:46:15;;;;;;;;;;;18.20;94.30;18.30;99999.00;;;;340569;28;82365;-92
2021/09/02 00:46:26;;;;;;;;;;;18.20;94.40;18.20;99996.00;;;;339835;28;95538;-92
2021/09/02 00:46:38;;;;;;;;;;;18.20;94.50;18.20;99995.00;;;;341848;28;82448;-92
2021/09/02 00:46:50;;;;;;;;;;;18.20;94.50;18.20;99995.00;;;;338422;28;97455;-92
2021/09/02 00:47:03;;;;;;;;;;;18.20;94.60;18.20;100007.00;;;;342039;28;82415;-93
2021/09/02 00:47:15;;;;;;;;;;;18.20;94.50;18.20;100000.00;;;;339672;28;96536;-94
2021/09/02 00:47:27;;;;;;;;;;;18.20;94.50;18.20;99997.00;;;;339171;28;83431;-92
2021/09/02 00:47:39;;;;;;;;;;;18.20;94.60;18.20;99999.00;;;;340700;28;95647;-92
2021/09/02 00:47:51;;;;;;;;;;;18.20;94.50;18.20;99994.00;;;;339117;28;83515;-92
2021/09/02 00:48:03;;;;;;;;;;;18.20;94.50;18.20;99997.00;;;;337052;28;96628;-93
2021/09/02 00:48:15;;;;;;;;;;;18.20;94.60;18.30;99987.00;;;;338074;28;83312;-92
2021/09/02 00:48:26;;;;;;;;;;;18.10;94.60;18.40;99986.00;;;;338424;28;96257;-93
2021/09/02 00:48:38;;;;;;;;;;;18.10;94.40;18.40;99984.00;;;;346611;28;83622;-92
2021/09/02 00:48:51;;;;;;;;;;;18.20;94.30;18.40;99988.00;;;;345423;28;96328;-94
2021/09/02 00:49:02;;;;;;;;;;;18.20;94.30;18.40;99989.00;;;;337910;28;83363;-93
2021/09/02 00:49:14;;;;;;;;;;;18.20;94.30;18.30;99980.00;;;;345334;28;95941;-92
2021/09/02 00:49:27;;;;;;;;;;;18.20;94.40;18.30;99984.00;;;;337920;28;83473;-93
2021/09/02 00:49:38;;;;;;;;;;;18.20;94.20;18.40;99979.00;;;;344022;28;97077;-93
2021/09/02 00:49:50;;;;;;;;;;;18.20;94.20;18.30;99989.00;;;;340687;28;82552;-93
2021/09/02 00:50:03;;;;;;;;;;;18.20;94.40;18.30;99985.00;;;;341136;28;97126;-92
2021/09/02 00:50:15;;;;;;;;;;;18.20;94.40;18.30;99983.00;;;;337948;28;82553;-91
2021/09/02 00:50:28;;;;;;;;;;;18.20;94.40;18.30;99980.00;;;;337114;28;95600;-92
2021/09/02 00:50:40;;;;;;;;;;;18.10;94.40;18.20;99980.00;;;;342142;28;83418;-92
2021/09/02 00:50:52;;;;;;;;;;;18.10;94.50;18.20;99979.00;;;;339204;28;97598;-91
2021/09/02 00:51:04;;;;;;;;;;;18.10;94.60;18.30;99978.00;;;;339688;28;83347;-93
2021/09/02 00:51:16;;;;;;;;;;;18.10;94.50;18.30;99984.00;;;;338539;28;95770;-91
2021/09/02 00:51:28;;;;;;;;;;;18.10;94.50;18.40;99981.00;;;;336520;28;83450;-92
2021/09/02 00:51:40;;;;;;;;;;;18.10;94.40;18.50;99978.00;;;;339457;28;96983;-92
2021/09/02 00:51:51;;;;;;;;;;;18.10;94.30;18.50;99975.00;;;;340496;28;83457;-93
2021/09/02 00:52:07;;;;;;;;;;;18.10;94.20;18.50;99976.00;;;;339846;28;94025;-93
2021/09/02 00:52:21;;;;;;;;;;;18.10;94.30;18.30;99978.00;;;;342031;28;82438;-93
2021/09/02 00:52:33;;;;;;;;;;;18.20;94.40;18.20;99980.00;;;;339767;28;96673;-93
2021/09/02 00:52:44;;;;;;;;;;;18.10;94.50;18.20;99984.00;;;;339272;28;83481;-92
2021/09/02 00:52:58;;;;;;;;;;;18.20;94.50;18.20;99985.00;;;;339543;28;96492;-93
2021/09/02 00:53:09;;;;;;;;;;;18.10;94.50;18.20;99985.00;;;;341923;28;83389;-93
2021/09/02 00:53:21;;;;;;;;;;;18.10;94.60;18.30;99977.00;;;;338488;28;95511;-92
2021/09/02 00:53:33;;;;;;;;;;;18.10;94.50;18.30;99979.00;;;;339259;28;83251;-92
2021/09/02 00:53:47;;;;;;;;;;;18.10;94.60;18.30;99978.00;;;;339444;28;96454;-92
2021/09/02 00:53:58;;;;;;;;;;;18.10;94.50;18.30;99977.00;;;;340454;28;83304;-93
2021/09/02 00:54:10;;;;;;;;;;;18.10;94.50;18.30;99980.00;;;;338525;28;97032;-93
2021/09/02 00:54:22;;;;;;;;;;;18.10;94.40;18.30;99980.00;;;;336644;28;83144;-93
2021/09/02 00:54:34;;;;;;;;;;;18.10;94.30;18.30;99984.00;;;;339668;28;96877;-93
2021/09/02 00:54:49;;;;;;;;;;;18.10;94.30;18.30;99983.00;;;;339152;28;83302;-92
2021/09/02 00:55:04;;;;;;;;;;;18.10;94.50;18.20;99981.00;;;;339726;28;95313;-93
2021/09/02 00:55:17;;;;;;;;;;;18.10;94.70;18.30;99975.00;;;;340739;28;83388;-93
2021/09/02 00:55:32;;;;;;;;;;;18.10;94.70;18.30;99981.00;;;;338542;28;95193;-93
2021/09/02 00:55:43;;;;;;;;;;;18.10;94.50;18.30;99982.00;;;;339334;28;82611;-92
2021/09/02 00:55:55;;;;;;;;;;;18.10;94.60;18.30;99980.00;;;;340674;28;96753;-91
2021/09/02 00:56:07;;;;;;;;;;;18.10;94.60;18.20;99972.00;;;;339233;28;82527;-94
2021/09/02 00:56:19;;;;;;;;;;;18.10;94.70;18.30;99968.00;;;;337261;28;96134;-93
2021/09/02 00:56:30;;;;;;;;;;;18.10;94.70;18.30;99978.00;;;;340453;28;82370;-92
2021/09/02 00:56:42;;;;;;;;;;;18.10;94.90;18.30;99975.00;;;;336606;28;94879;-92
2021/09/02 00:56:54;;;;;;;;;;;18.10;94.90;18.30;99980.00;;;;337904;28;82529;-92
2021/09/02 00:57:13;;;;;;;;;;;18.10;94.80;18.30;99982.00;;;;344893;28;96438;-93
2021/09/02 00:57:25;;;;;;;;;;;18.10;94.50;18.30;99975.00;;;;346210;28;83395;-93
2021/09/02 00:57:37;;;;;;;;;;;18.10;94.40;18.40;99977.00;;;;339199;28;95740;-93
2021/09/02 00:57:49;;;;;;;;;;;18.10;94.40;18.40;99973.00;;;;342085;28;82456;-93
2021/09/02 00:58:01;;;;;;;;;;;18.10;94.40;18.50;99971.00;;;;339821;28;96540;-92
2021/09/02 00:58:13;;;;;;;;;;;18.10;94.40;18.50;99972.00;;;;341978;28;83469;-91
2021/09/02 00:58:24;;;;;;;;;;;18.10;94.40;18.50;99975.00;;;;340927;28;95487;-93
2021/09/02 00:58:36;;;;;;;;;;;18.10;94.40;18.40;99971.00;;;;342978;27;83591;-92
2021/09/02 00:58:48;;;;;;;;;;;18.10;94.30;18.40;99972.00;;;;344029;28;96043;-92
2021/09/02 00:59:00;;;;;;;;;;;18.10;94.20;18.50;99971.00;;;;344891;28;82461;-92
2021/09/02 00:59:12;;;;;;;;;;;18.10;94.30;18.50;99969.00;;;;339888;28;95889;-92
2021/09/02 00:59:27;;;;;;;;;;;18.10;94.40;18.50;99976.00;;;;337838;28;83346;-93